Time;durP1;ratioP1;P1;durP2;ratioP2;P2;SDS_P1;SDS_P2;PMS_P1;PMS_P2;Temp;Humidity;BMP_temperature;BMP_pressure;BME280_temperature;BME280_humidity;BME280_pressure;Samples;Min_cycle;Max_cycle;Signal;HPM_P1;HPM_P2
2023/04/04 00:00:15;;;;;;;9.30;8.38;;;;;;;4.21;56.76;102821.84;5135435;27;20030;-57
2023/04/04 00:02:41;;;;;;;11.15;9.02;;;;;;;3.97;57.38;102825.47;5126075;27;20081;-56
2023/04/04 00:05:07;;;;;;;8.88;8.07;;;;;;;4.17;56.60;102824.50;5095670;28;20114;-56
2023/04/04 00:07:33;;;;;;;9.10;8.20;;;;;;;4.16;56.76;102817.47;5116353;27;20107;-57
2023/04/04 00:09:58;;;;;;;9.57;8.60;;;;;;;4.07;57.07;102821.03;5115001;27;20098;-57
2023/04/04 00:12:24;;;;;;;9.88;8.95;;;;;;;4.01;57.28;102807.91;5097857;28;20023;-56
2023/04/04 00:14:50;;;;;;;9.35;8.35;;;;;;;3.91;57.65;102824.59;5133584;27;20027;-57
2023/04/04 00:17:16;;;;;;;9.65;8.70;;;;;;;3.83;58.14;102817.59;5116615;27;20390;-57
2023/04/04 00:19:41;;;;;;;9.63;8.75;;;;;;;3.86;58.22;102822.00;5135880;27;20038;-57
2023/04/04 00:22:07;;;;;;;11.07;8.48;;;;;;;3.87;58.09;102815.84;5134767;27;20110;-57
2023/04/04 00:24:33;;;;;;;8.57;7.75;;;;;;;3.87;58.44;102834.25;5120845;27;20031;-57
2023/04/04 00:26:58;;;;;;;8.77;7.85;;;;;;;3.90;57.38;102836.88;5096278;28;20470;-57
2023/04/04 00:29:24;;;;;;;10.13;8.20;;;;;;;3.79;58.44;102839.53;5102871;27;20031;-56
2023/04/04 00:31:49;;;;;;;11.50;8.73;;;;;;;3.85;58.38;102828.13;5134627;27;20034;-57
2023/04/04 00:34:15;;;;;;;8.77;7.97;;;;;;;3.66;58.52;102829.94;5127006;27;20031;-57
2023/04/04 00:36:40;;;;;;;9.93;8.93;;;;;;;3.58;58.78;102840.47;5114763;28;20036;-56
2023/04/04 00:39:06;;;;;;;8.23;7.50;;;;;;;3.71;58.40;102830.81;5114833;27;20475;-56
2023/04/04 00:41:31;;;;;;;13.20;8.95;;;;;;;3.64;59.17;102829.06;5096419;28;20023;-56
2023/04/04 00:44:01;;;;;;;9.48;8.55;;;;;;;3.58;59.66;102826.44;5097396;27;20031;-57
2023/04/04 00:46:28;;;;;;;9.43;8.30;;;;;;;3.54;59.45;102833.47;5113934;27;20024;-57
2023/04/04 00:48:54;;;;;;;9.40;8.38;;;;;;;3.61;59.30;102842.22;5114643;27;20024;-57
2023/04/04 00:51:19;;;;;;;12.55;8.32;;;;;;;3.62;59.46;102830.84;5114390;28;20026;-56
2023/04/04 00:53:46;;;;;;;9.95;8.60;;;;;;;3.57;59.89;102843.13;5114270;28;20027;-56
2023/04/04 00:56:13;;;;;;;8.80;7.93;;;;;;;3.47;59.83;102838.72;5128551;27;20027;-57
2023/04/04 00:58:39;;;;;;;11.15;8.35;;;;;;;3.52;59.56;102835.22;5135112;27;20027;-56
2023/04/04 01:01:05;;;;;;;10.38;8.45;;;;;;;3.40;60.06;102824.72;5134378;27;20079;-57
2023/04/04 01:03:31;;;;;;;9.88;8.88;;;;;;;3.28;61.12;102845.78;5134748;27;20381;-57
2023/04/04 01:05:57;;;;;;;9.18;8.32;;;;;;;3.35;60.37;102839.63;5130949;27;20027;-56
2023/04/04 01:08:26;;;;;;;8.40;7.47;;;;;;;3.37;60.68;102830.84;5095672;28;20031;-57
2023/04/04 01:10:51;;;;;;;9.35;8.45;;;;;;;3.21;60.49;102830.84;5112791;28;20508;-57
2023/04/04 01:13:17;;;;;;;9.82;8.77;;;;;;;3.25;59.48;102838.75;5126421;27;20102;-57
2023/04/04 01:15:43;;;;;;;9.10;8.20;;;;;;;3.21;60.59;102839.66;5132075;27;21880;-57
2023/04/04 01:18:12;;;;;;;9.20;8.25;;;;;;;3.24;60.73;102829.13;5114052;28;20042;-57
2023/04/04 01:20:51;;;;;;;9.23;8.07;;;;;;;3.14;61.33;102827.34;5096633;28;20080;-57
2023/04/04 01:23:17;;;;;;;10.27;7.78;;;;;;;3.27;60.75;102825.63;5116763;27;20068;-56
2023/04/04 01:25:42;;;;;;;10.13;8.25;;;;;;;3.32;60.73;102822.09;5115684;27;20019;-56
2023/04/04 01:28:08;;;;;;;14.70;8.90;;;;;;;3.28;61.11;102814.22;5134252;27;20029;-57
2023/04/04 01:30:37;;;;;;;9.43;7.75;;;;;;;3.27;61.21;102809.84;5133041;27;20477;-57
2023/04/04 01:33:12;;;;;;;13.18;8.30;;;;;;;3.28;61.01;102806.31;5134349;27;20035;-56
2023/04/04 01:36:07;;;;;;;8.35;7.65;;;;;;;3.23;61.27;102803.69;5131817;27;20122;-57
2023/04/04 01:38:47;;;;;;;9.23;8.32;;;;;;;3.21;61.28;102805.47;5115569;27;20131;-57
2023/04/04 01:41:14;;;;;;;8.25;7.45;;;;;;;3.21;60.13;102805.47;5115410;27;20039;-57
2023/04/04 01:43:44;;;;;;;9.13;8.23;;;;;;;3.16;60.99;102804.59;5125642;27;20684;-57
2023/04/04 01:46:09;;;;;;;9.73;8.52;;;;;;;3.15;61.08;102794.97;5095283;27;20027;-57
2023/04/04 01:48:35;;;;;;;9.63;7.82;;;;;;;3.02;61.17;102798.44;5096230;28;20030;-57
2023/04/04 01:51:01;;;;;;;10.63;8.15;;;;;;;3.15;60.59;102802.84;5094565;28;20015;-56
2023/04/04 01:53:26;;;;;;;10.35;8.07;;;;;;;3.07;61.00;102801.97;5116550;27;20019;-57
2023/04/04 01:55:53;;;;;;;12.63;8.40;;;;;;;2.94;61.24;102801.97;5133388;27;20019;-57
2023/04/04 01:58:19;;;;;;;9.55;7.68;;;;;;;2.85;62.08;102809.81;5133640;27;20049;-57
2023/04/04 02:00:44;;;;;;;10.43;8.20;;;;;;;2.94;61.46;102803.69;5114722;27;20083;-56
2023/04/04 02:03:10;;;;;;;10.30;8.05;;;;;;;2.77;62.46;102797.59;5114410;27;20427;-57
2023/04/04 02:05:35;;;;;;;9.77;8.18;;;;;;;2.79;62.45;102804.56;5131799;27;20023;-57
2023/04/04 02:08:01;;;;;;;10.15;7.95;;;;;;;2.81;62.02;102789.69;5133459;27;20027;-57
2023/04/04 02:10:28;;;;;;;8.93;8.13;;;;;;;2.70;62.50;102804.56;5107071;28;20023;-56
2023/04/04 02:12:54;;;;;;;8.82;7.93;;;;;;;2.73;62.48;102797.56;5111600;28;20428;-56
2023/04/04 02:15:19;;;;;;;8.18;7.43;;;;;;;2.68;62.42;102801.94;5132793;27;20015;-57
2023/04/04 02:17:48;;;;;;;8.98;7.63;;;;;;;2.68;62.61;102804.56;5130122;27;20063;-57
2023/04/04 02:20:14;;;;;;;12.20;8.13;;;;;;;2.55;63.26;102802.78;5112186;28;20036;-56
2023/04/04 02:22:40;;;;;;;9.57;8.57;;;;;;;2.45;63.60;102791.41;5095838;28;20446;-56
2023/04/04 02:25:05;;;;;;;9.07;8.27;;;;;;;2.58;63.28;102804.53;5093729;28;20129;-57
2023/04/04 02:27:31;;;;;;;11.23;8.00;;;;;;;2.52;63.82;102802.78;5092956;28;20031;-56
2023/04/04 02:29:56;;;;;;;9.63;7.43;;;;;;;2.40;63.44;102806.25;5110374;27;20027;-57
2023/04/04 02:32:22;;;;;;;10.18;7.55;;;;;;;2.44;63.67;102810.66;5077279;28;20046;-57
2023/04/04 02:34:47;;;;;;;9.68;7.90;;;;;;;2.47;63.65;102812.38;5100183;28;20024;-57
2023/04/04 02:37:13;;;;;;;10.20;8.55;;;;;;;2.22;64.42;102804.47;5095192;28;20023;-57
2023/04/04 02:39:38;;;;;;;8.77;7.87;;;;;;;2.32;64.25;102822.88;5101411;28;20504;-56
2023/04/04 02:42:04;;;;;;;8.98;7.65;;;;;;;2.23;64.48;102807.97;5111223;28;20028;-56
2023/04/04 02:44:29;;;;;;;8.75;7.80;;;;;;;2.32;64.26;102817.59;5095060;28;20028;-57
2023/04/04 02:46:55;;;;;;;7.95;7.05;;;;;;;2.21;64.43;102821.09;5073944;28;20012;-57
2023/04/04 02:49:20;;;;;;;11.20;8.07;;;;;;;2.17;64.72;102814.06;5096753;28;20149;-56
2023/04/04 02:51:46;;;;;;;10.13;7.33;;;;;;;2.13;65.00;102806.19;5112502;28;20034;-56
2023/04/04 02:54:12;;;;;;;11.23;7.53;;;;;;;2.18;64.89;102809.72;5082037;28;20043;-56
2023/04/04 02:56:37;;;;;;;8.40;7.65;;;;;;;2.00;65.21;102803.53;5085612;28;20028;-57
2023/04/04 02:59:03;;;;;;;9.67;8.67;;;;;;;2.11;65.25;102800.91;5107453;28;20516;-56
2023/04/04 03:01:29;;;;;;;11.73;8.65;;;;;;;1.96;65.43;102801.72;5086249;28;20023;-57
2023/04/04 03:03:55;;;;;;;11.02;8.23;;;;;;;2.02;65.24;102798.25;5076727;28;20023;-56
2023/04/04 03:06:22;;;;;;;9.57;8.27;;;;;;;2.12;64.31;102797.44;5104572;28;20082;-56
2023/04/04 03:08:48;;;;;;;9.27;7.85;;;;;;;2.06;64.48;102797.41;5104557;28;20515;-56
2023/04/04 03:11:20;;;;;;;9.25;7.90;;;;;;;2.03;65.20;102786.91;5114937;28;20019;-56
2023/04/04 03:13:45;;;;;;;9.38;7.70;;;;;;;2.08;64.22;102802.66;5077248;28;20077;-56
2023/04/04 03:16:16;;;;;;;9.05;8.05;;;;;;;2.00;65.03;102800.91;5085886;28;20031;-56
2023/04/04 03:18:42;;;;;;;9.05;8.05;;;;;;;1.95;65.72;102799.13;5123554;28;20085;-56
2023/04/04 03:21:07;;;;;;;8.18;7.40;;;;;;;1.93;65.30;102798.22;5079490;28;20028;-57
2023/04/04 03:23:33;;;;;;;9.77;7.77;;;;;;;1.97;65.27;102805.22;5091756;28;20107;-57
2023/04/04 03:25:58;;;;;;;9.53;7.53;;;;;;;1.94;65.68;102808.75;5107001;28;20386;-56
2023/04/04 03:28:23;;;;;;;9.30;8.30;;;;;;;1.90;65.44;102795.59;5073930;28;20020;-57
2023/04/04 03:30:49;;;;;;;8.90;8.00;;;;;;;1.93;65.59;102803.47;5112093;28;20012;-57
2023/04/04 03:33:15;;;;;;;10.87;7.90;;;;;;;1.86;65.53;102812.19;5091261;28;20040;-57
2023/04/04 03:35:41;;;;;;;8.23;7.40;;;;;;;1.86;65.88;102789.47;5116141;28;20027;-57
2023/04/04 03:38:07;;;;;;;13.17;8.57;;;;;;;1.78;66.25;102799.91;5091262;28;20052;-57
2023/04/04 03:40:33;;;;;;;8.90;7.70;;;;;;;1.86;66.07;102792.09;5092702;28;20023;-57
2023/04/04 03:42:58;;;;;;;8.88;7.97;;;;;;;1.82;65.93;102782.44;5091934;28;20541;-57
2023/04/04 03:45:26;;;;;;;8.67;7.77;;;;;;;1.80;66.17;102797.31;5072810;28;20016;-56
2023/04/04 03:47:52;;;;;;;10.35;7.93;;;;;;;1.83;65.92;102789.44;5097327;28;20063;-57
2023/04/04 03:50:17;;;;;;;9.80;8.27;;;;;;;1.81;66.06;102780.69;5105747;28;20505;-56
2023/04/04 03:52:43;;;;;;;8.82;7.93;;;;;;;1.70;66.23;102791.13;5077162;28;20035;-57
2023/04/04 03:55:08;;;;;;;10.30;7.90;;;;;;;1.74;66.58;102774.53;5100912;28;20118;-57
2023/04/04 03:57:35;;;;;;;8.70;7.70;;;;;;;1.76;66.65;102779.78;5116770;27;20027;-56
2023/04/04 04:00:03;;;;;;;10.07;8.03;;;;;;;1.67;66.75;102782.34;5119527;27;20407;-57
2023/04/04 04:02:30;;;;;;;8.97;8.17;;;;;;;1.67;66.35;102777.13;5134272;27;20034;-57
2023/04/04 04:04:56;;;;;;;9.10;8.13;;;;;;;1.65;66.51;102779.75;5112777;27;20090;-56
2023/04/04 04:07:21;;;;;;;8.50;7.63;;;;;;;1.66;67.14;102781.50;5135793;27;20019;-56
2023/04/04 04:09:47;;;;;;;8.50;7.73;;;;;;;1.70;66.29;102795.50;5133743;27;20027;-56
2023/04/04 04:12:12;;;;;;;10.43;8.03;;;;;;;1.57;66.52;102786.69;5096846;28;20448;-56
2023/04/04 04:14:38;;;;;;;10.97;8.10;;;;;;;1.60;66.64;102786.69;5127122;27;20012;-57
2023/04/04 04:17:03;;;;;;;10.93;7.90;;;;;;;1.56;66.68;102791.06;5075948;28;20021;-58
2023/04/04 04:19:28;;;;;;;9.67;8.23;;;;;;;1.55;66.65;102784.03;5105890;27;20483;-57
2023/04/04 04:21:54;;;;;;;9.73;8.13;;;;;;;1.54;67.14;102787.53;5117058;27;20047;-57
2023/04/04 04:24:19;;;;;;;12.53;8.47;;;;;;;1.46;66.37;102788.38;5117157;27;20106;-57
2023/04/04 04:26:45;;;;;;;10.60;8.40;;;;;;;1.39;67.71;102781.34;5135427;27;20022;-56
2023/04/04 04:29:10;;;;;;;10.93;8.73;;;;;;;1.36;67.54;102780.44;5135560;27;20015;-56
2023/04/04 04:31:37;;;;;;;9.17;8.03;;;;;;;1.35;67.86;102786.56;5118658;27;20084;-56
2023/04/04 04:34:09;;;;;;;10.03;9.03;;;;;;;1.31;68.25;102781.28;5073804;28;20133;-56
2023/04/04 04:36:35;;;;;;;9.33;8.20;;;;;;;1.25;67.99;102769.00;5115198;27;20035;-56
2023/04/04 04:39:01;;;;;;;9.17;8.07;;;;;;;1.32;67.69;102760.34;5114744;27;20043;-57
2023/04/04 04:41:28;;;;;;;9.00;8.20;;;;;;;1.23;67.58;102765.50;5093269;28;20019;-56
2023/04/04 04:43:54;;;;;;;11.57;8.13;;;;;;;1.27;66.41;102783.00;5112626;28;20031;-57
2023/04/04 04:46:20;;;;;;;9.17;8.23;;;;;;;1.30;67.90;102782.16;5095269;28;20022;-56
2023/04/04 04:48:45;;;;;;;9.13;8.00;;;;;;;1.28;67.82;102783.88;5115578;27;20015;-57
2023/04/04 04:51:11;;;;;;;9.67;8.20;;;;;;;1.18;67.77;102784.66;5112591;28;20389;-57
2023/04/04 04:53:36;;;;;;;8.33;7.53;;;;;;;1.22;68.37;102784.72;5112162;27;20423;-57
2023/04/04 04:56:02;;;;;;;10.33;7.97;;;;;;;1.23;67.71;102790.84;5111398;28;20020;-56
2023/04/04 04:58:27;;;;;;;12.60;8.13;;;;;;;1.17;67.96;102796.91;5096152;28;20016;-56
2023/04/04 05:00:59;;;;;;;10.27;7.90;;;;;;;1.08;68.59;102802.94;5113138;28;20387;-57
2023/04/04 05:03:24;;;;;;;8.20;7.47;;;;;;;1.08;68.54;102800.31;5095584;28;20019;-57
2023/04/04 05:05:50;;;;;;;15.10;9.07;;;;;;;1.10;68.23;102810.84;5114214;28;20480;-57
2023/04/04 05:08:15;;;;;;;9.00;7.73;;;;;;;1.13;68.89;102811.72;5114679;27;20136;-57
2023/04/04 05:10:43;;;;;;;10.57;8.30;;;;;;;1.13;68.95;102814.34;5115380;27;20019;-57
2023/04/04 05:13:09;;;;;;;15.73;8.57;;;;;;;1.14;69.09;102820.47;5114199;28;20472;-57
2023/04/04 05:15:35;;;;;;;11.23;9.17;;;;;;;1.10;68.31;102813.47;5110585;28;20106;-57
2023/04/04 05:18:01;;;;;;;10.63;8.13;;;;;;;1.08;69.04;102825.66;5115972;27;20504;-57
2023/04/04 05:20:26;;;;;;;11.10;9.83;;;;;;;1.02;69.38;102812.50;5116023;27;20019;-57
2023/04/04 05:22:52;;;;;;;11.03;8.80;;;;;;;0.96;69.30;102817.69;5134475;27;20524;-57
2023/04/04 05:25:17;;;;;;;11.80;8.70;;;;;;;0.96;69.40;102813.34;5132049;27;20027;-56
2023/04/04 05:27:47;;;;;;;10.80;8.40;;;;;;;1.00;68.96;102812.50;5103142;27;20486;-57
2023/04/04 05:30:12;;;;;;;8.50;6.43;;;;;;;1.07;68.98;102816.06;5094287;28;20382;-56
2023/04/04 05:32:37;;;;;;;8.93;7.73;;;;;;;1.06;69.24;102816.91;5083389;28;21244;-57
2023/04/04 05:35:03;;;;;;;12.07;9.40;;;;;;;0.96;69.49;102815.94;5089294;28;20078;-58
2023/04/04 05:37:29;;;;;;;9.70;8.63;;;;;;;1.00;68.96;102819.47;5096547;28;20051;-58
2023/04/04 05:39:54;;;;;;;9.63;8.50;;;;;;;1.02;69.23;102823.84;5094820;28;20031;-58
2023/04/04 05:42:20;;;;;;;9.97;8.80;;;;;;;0.96;70.32;102821.19;5108439;28;20035;-57
2023/04/04 05:44:46;;;;;;;10.03;8.97;;;;;;;0.99;69.99;102823.84;5111027;28;20015;-57
2023/04/04 05:47:13;;;;;;;10.40;8.87;;;;;;;0.97;70.45;102824.69;5112877;28;20116;-57
2023/04/04 05:49:39;;;;;;;11.07;9.03;;;;;;;0.98;70.77;102826.47;5113475;27;20023;-57
2023/04/04 05:52:07;;;;;;;12.67;9.70;;;;;;;1.05;70.35;102823.00;5113108;28;20031;-57
2023/04/04 05:54:32;;;;;;;19.70;11.30;;;;;;;1.02;70.70;102830.84;5113240;28;20059;-57
2023/04/04 05:56:57;;;;;;;12.33;9.50;;;;;;;1.08;70.98;102833.50;5112893;28;20135;-57
2023/04/04 05:59:23;;;;;;;10.07;9.00;;;;;;;1.16;70.95;102833.59;5107413;28;20120;-57
2023/04/04 06:01:48;;;;;;;10.77;9.73;;;;;;;1.13;70.53;102823.97;5089050;28;20432;-57
2023/04/04 06:04:14;;;;;;;12.27;9.03;;;;;;;1.22;70.30;102833.63;5109194;28;20024;-57
2023/04/04 06:06:39;;;;;;;20.80;12.27;;;;;;;1.25;70.71;102823.19;5092772;28;20022;-57
2023/04/04 06:09:05;;;;;;;16.37;10.40;;;;;;;1.28;71.16;102828.44;5096259;28;20490;-57
2023/04/04 06:11:30;;;;;;;11.83;10.37;;;;;;;1.30;71.50;102831.97;5112709;27;20027;-58
2023/04/04 06:13:56;;;;;;;15.40;9.67;;;;;;;1.33;70.80;102832.84;5102136;28;20024;-58
2023/04/04 06:16:22;;;;;;;11.00;9.57;;;;;;;1.39;70.87;102833.78;5091863;28;20028;-58
2023/04/04 06:18:47;;;;;;;13.17;10.50;;;;;;;1.42;71.08;102820.69;5092555;28;20459;-58
2023/04/04 06:21:13;;;;;;;15.73;11.13;;;;;;;1.50;70.46;102827.75;5092172;28;20028;-58
2023/04/04 06:23:39;;;;;;;14.00;10.60;;;;;;;1.45;70.86;102831.19;5111167;27;20023;-58
2023/04/04 06:26:05;;;;;;;14.37;10.77;;;;;;;1.52;71.51;102832.97;5112154;28;20035;-58
2023/04/04 06:28:30;;;;;;;12.23;10.50;;;;;;;1.60;70.85;102839.16;5112504;28;20117;-58
2023/04/04 06:30:56;;;;;;;13.40;10.60;;;;;;;1.63;70.68;102836.53;5111980;28;20110;-58
2023/04/04 06:33:21;;;;;;;12.27;10.97;;;;;;;1.79;70.01;102840.13;5113449;27;20110;-58
2023/04/04 06:35:49;;;;;;;12.87;10.67;;;;;;;1.92;70.55;102846.34;5112391;28;20379;-58
2023/04/04 06:38:14;;;;;;;11.77;10.53;;;;;;;2.00;69.35;102847.22;5112184;28;20410;-58
2023/04/04 06:40:40;;;;;;;17.20;10.83;;;;;;;2.08;66.90;102847.28;5093883;28;20028;-59
2023/04/04 06:43:05;;;;;;;12.10;10.90;;;;;;;2.27;66.87;102839.50;5113623;27;20031;-58
2023/04/04 06:45:32;;;;;;;15.82;12.15;;;;;;;2.44;65.40;102846.53;5111809;28;20467;-58
2023/04/04 06:47:58;;;;;;;14.77;10.60;;;;;;;2.55;64.97;102836.94;5112293;28;20057;-58
2023/04/04 06:50:23;;;;;;;12.97;10.20;;;;;;;2.67;64.79;102843.97;5112238;28;20070;-58
2023/04/04 06:52:49;;;;;;;14.90;10.93;;;;;;;2.85;64.38;102837.84;5118686;27;20033;-58
2023/04/04 06:55:18;;;;;;;11.20;10.10;;;;;;;2.92;64.16;102832.63;5132185;27;20038;-58
2023/04/04 06:57:43;;;;;;;12.23;11.02;;;;;;;3.11;63.50;102859.78;5114470;28;20039;-58
2023/04/04 07:00:09;;;;;;;12.13;10.52;;;;;;;3.35;63.59;102852.75;5132438;28;20027;-58
2023/04/04 07:02:35;;;;;;;14.50;10.77;;;;;;;3.39;62.31;102849.28;5131466;28;20542;-58
2023/04/04 07:05:04;;;;;;;14.25;10.82;;;;;;;3.60;61.86;102848.38;5132323;28;20059;-58
2023/04/04 07:07:30;;;;;;;15.00;11.30;;;;;;;3.71;60.93;102838.69;5125397;28;20105;-58
2023/04/04 07:09:55;;;;;;;12.30;11.10;;;;;;;3.76;61.01;102839.53;5111664;28;20141;-58
2023/04/04 07:12:21;;;;;;;13.00;11.70;;;;;;;3.84;61.89;102836.91;5113013;28;20024;-58
2023/04/04 07:14:46;;;;;;;21.83;12.60;;;;;;;4.02;61.56;102847.38;5099044;28;20027;-58
2023/04/04 07:17:12;;;;;;;14.50;11.65;;;;;;;4.22;59.72;102847.28;5132007;28;20033;-58
2023/04/04 07:19:37;;;;;;;16.77;12.13;;;;;;;4.33;59.38;102849.88;5114272;28;20023;-58
2023/04/04 07:22:03;;;;;;;14.70;11.93;;;;;;;4.36;58.59;102843.72;5114005;28;20023;-58
2023/04/04 07:24:28;;;;;;;41.50;25.38;;;;;;;4.53;57.76;102849.78;5131765;27;20107;-58
2023/04/04 07:26:54;;;;;;;26.88;18.08;;;;;;;4.61;54.81;102842.69;5136484;27;20027;-58
2023/04/04 07:29:20;;;;;;;15.32;12.57;;;;;;;4.92;55.04;102847.78;5136457;27;20019;-58
2023/04/04 07:31:46;;;;;;;16.45;14.35;;;;;;;5.05;53.93;102849.44;5115293;27;20019;-58
2023/04/04 07:34:12;;;;;;;13.13;10.80;;;;;;;5.15;54.17;102852.88;5097969;28;20037;-58
2023/04/04 07:36:37;;;;;;;11.75;10.07;;;;;;;5.21;53.50;102829.09;5097384;28;20131;-58
2023/04/04 07:39:03;;;;;;;14.02;11.15;;;;;;;5.32;52.06;102835.13;5115292;28;20517;-58
2023/04/04 07:41:29;;;;;;;13.52;11.63;;;;;;;5.45;52.15;102833.25;5097346;28;20034;-58
2023/04/04 07:43:54;;;;;;;15.48;11.40;;;;;;;5.54;52.91;102830.53;5098428;28;20031;-58
2023/04/04 07:46:20;;;;;;;14.93;11.73;;;;;;;5.70;51.68;102828.59;5114981;28;20023;-58
2023/04/04 07:48:45;;;;;;;13.00;10.90;;;;;;;5.84;49.87;102833.72;5097428;28;20045;-58
2023/04/04 07:51:11;;;;;;;13.45;11.93;;;;;;;5.71;49.97;102835.63;5097453;28;20037;-58
2023/04/04 07:53:36;;;;;;;13.05;10.43;;;;;;;5.83;49.01;102835.50;5133451;27;20028;-58
2023/04/04 07:56:05;;;;;;;10.80;9.25;;;;;;;5.87;48.63;102816.06;5135868;27;20454;-58
2023/04/04 07:58:33;;;;;;;10.50;9.48;;;;;;;5.90;48.79;102815.16;5135974;27;20027;-58
2023/04/04 08:01:00;;;;;;;10.52;9.63;;;;;;;6.22;48.86;102835.94;5135436;27;20500;-58
2023/04/04 08:03:25;;;;;;;13.75;10.60;;;;;;;6.32;48.92;102834.03;5134267;27;20038;-58
2023/04/04 08:05:50;;;;;;;10.45;9.45;;;;;;;6.43;47.51;102841.84;5135778;27;20023;-58
2023/04/04 08:08:16;;;;;;;11.95;10.88;;;;;;;6.53;48.38;102843.44;5117122;27;20155;-58
2023/04/04 08:10:44;;;;;;;16.95;15.20;;;;;;;6.52;46.30;102842.56;5107682;28;20026;-58
2023/04/04 08:13:10;;;;;;;10.48;9.48;;;;;;;6.67;46.55;102830.03;5113167;27;20034;-58
2023/04/04 08:15:38;;;;;;;10.23;8.93;;;;;;;6.89;45.52;102833.25;5097231;28;20035;-58
2023/04/04 08:18:07;;;;;;;10.15;9.35;;;;;;;6.97;45.26;102844.56;5115193;28;20080;-58
2023/04/04 08:20:34;;;;;;;9.70;8.90;;;;;;;6.93;44.87;102840.22;5114829;28;20136;-58
2023/04/04 08:23:00;;;;;;;12.77;8.70;;;;;;;7.01;43.21;102849.78;5105917;27;20019;-58
2023/04/04 08:25:26;;;;;;;9.05;8.15;;;;;;;7.17;43.63;102846.88;5118473;27;20070;-58
2023/04/04 08:27:54;;;;;;;8.75;7.95;;;;;;;7.19;42.94;102843.31;5096774;28;20023;-58
2023/04/04 08:30:19;;;;;;;10.15;8.27;;;;;;;7.32;42.85;102840.47;5114204;28;20031;-58
2023/04/04 08:32:45;;;;;;;11.40;8.90;;;;;;;7.33;42.80;102842.22;5121636;27;20026;-58
2023/04/04 08:35:11;;;;;;;11.73;8.98;;;;;;;7.39;42.03;102850.94;5116490;27;20034;-58
2023/04/04 08:37:37;;;;;;;10.38;8.23;;;;;;;7.17;41.25;102844.25;5134315;27;20071;-58
2023/04/04 08:40:06;;;;;;;9.82;8.80;;;;;;;7.42;42.57;102834.13;5116651;27;20046;-58
2023/04/04 08:42:34;;;;;;;9.50;8.55;;;;;;;7.53;41.42;102828.59;5127043;27;20085;-58
2023/04/04 08:45:03;;;;;;;9.68;8.63;;;;;;;7.64;40.88;102834.59;5114675;28;20024;-58
2023/04/04 08:47:32;;;;;;;9.05;8.35;;;;;;;7.73;41.52;102823.81;5113863;28;20020;-58
2023/04/04 08:50:04;;;;;;;11.10;9.55;;;;;;;7.79;40.51;102829.00;5114338;28;20343;-58
2023/04/04 08:52:30;;;;;;;9.13;8.18;;;;;;;7.85;40.23;102828.91;5096644;27;20019;-58
2023/04/04 08:54:57;;;;;;;9.82;8.32;;;;;;;7.80;39.65;102830.75;5114407;28;20066;-58
2023/04/04 08:57:22;;;;;;;8.90;8.10;;;;;;;7.83;39.12;102836.00;5114141;28;20072;-60
2023/04/04 08:59:48;;;;;;;8.20;7.40;;;;;;;7.84;38.87;102818.31;5114175;28;20031;-58
2023/04/04 09:02:22;;;;;;;8.35;7.65;;;;;;;7.68;38.80;102821.28;5113544;28;20059;-58
2023/04/04 09:04:50;;;;;;;10.18;8.00;;;;;;;7.91;39.77;102820.81;5115434;27;20042;-58
2023/04/04 09:07:16;;;;;;;10.73;7.82;;;;;;;8.25;39.00;102827.19;5113903;28;20019;-58
2023/04/04 09:09:48;;;;;;;8.55;7.65;;;;;;;8.43;38.20;102836.56;5114172;28;20031;-58
2023/04/04 09:12:14;;;;;;;10.43;7.18;;;;;;;8.51;37.77;102834.63;5114101;28;20019;-58
2023/04/04 09:14:42;;;;;;;10.68;8.30;;;;;;;8.61;38.02;102830.84;5096917;28;20390;-58
2023/04/04 09:17:09;;;;;;;9.68;8.57;;;;;;;8.89;38.51;102831.06;5113403;28;20027;-58
2023/04/04 09:19:38;;;;;;;8.02;7.32;;;;;;;8.89;37.78;102820.44;5095733;28;20021;-58
2023/04/04 09:22:08;;;;;;;8.40;7.70;;;;;;;8.98;38.14;102827.31;5113630;28;20028;-58
2023/04/04 09:24:40;;;;;;;10.65;7.57;;;;;;;8.70;37.13;102827.97;5096704;28;20385;-58
2023/04/04 09:27:10;;;;;;;8.63;7.78;;;;;;;9.10;38.23;102827.88;5113703;28;20501;-58
2023/04/04 09:29:40;;;;;;;9.40;8.50;;;;;;;9.29;36.67;102824.75;5113748;28;20027;-58
2023/04/04 09:32:09;;;;;;;;;;;;;;;9.49;36.92;102824.22;5113573;28;20474;-58
2023/04/04 09:34:36;;;;;;;8.73;6.45;;;;;;;9.33;36.66;102829.09;5126703;27;20430;-58
2023/04/04 09:37:03;;;;;;;8.60;7.82;;;;;;;9.35;37.02;102829.03;5115596;27;20164;-58
2023/04/04 09:39:30;;;;;;;8.60;7.65;;;;;;;9.63;36.45;102827.41;5115441;27;20050;-58
2023/04/04 09:41:57;;;;;;;8.35;7.63;;;;;;;9.81;36.16;102828.66;5133936;27;20043;-58
2023/04/04 09:44:23;;;;;;;9.48;7.38;;;;;;;9.78;35.91;102816.34;5132051;27;20478;-58
2023/04/04 09:46:51;;;;;;;8.52;7.63;;;;;;;9.95;34.99;102812.34;5133306;27;20090;-58
2023/04/04 09:49:26;;;;;;;9.13;8.00;;;;;;;10.03;37.03;102820.97;5133524;27;20023;-58
2023/04/04 09:51:54;;;;;;;9.07;7.90;;;;;;;10.20;34.76;102817.78;5133562;27;20019;-58
2023/04/04 09:54:21;;;;;;;9.40;7.28;;;;;;;10.20;34.97;102809.81;5120233;27;20024;-58
2023/04/04 09:56:47;;;;;;;8.65;7.75;;;;;;;10.56;34.90;102818.50;5112914;28;20019;-58
2023/04/04 09:59:13;;;;;;;8.52;7.72;;;;;;;10.36;35.16;102802.28;5094749;28;20042;-58
2023/04/04 10:01:39;;;;;;;8.57;7.78;;;;;;;10.68;34.59;102795.97;5112649;28;20467;-58
2023/04/04 10:04:05;;;;;;;7.03;6.43;;;;;;;10.65;34.66;102807.56;5113878;27;20428;-58
2023/04/04 10:06:31;;;;;;;8.70;7.80;;;;;;;10.66;34.03;102800.47;5112868;28;20018;-58
2023/04/04 10:08:57;;;;;;;8.40;7.60;;;;;;;10.86;32.99;102806.00;5094624;28;20024;-58
2023/04/04 10:11:29;;;;;;;8.07;7.30;;;;;;;10.81;34.64;102807.94;5112605;28;20024;-58
2023/04/04 10:13:56;;;;;;;10.05;7.50;;;;;;;10.64;33.61;102802.28;5123869;27;20114;-58
2023/04/04 10:16:23;;;;;;;9.48;8.25;;;;;;;10.52;33.31;102805.34;5132692;27;20019;-58
2023/04/04 10:18:51;;;;;;;7.82;7.22;;;;;;;10.84;33.77;102801.66;5133260;27;20041;-58
2023/04/04 10:21:16;;;;;;;8.98;8.18;;;;;;;10.93;34.70;102785.38;5114906;27;20059;-58
2023/04/04 10:23:45;;;;;;;8.35;7.57;;;;;;;10.89;34.06;102792.59;5131545;27;20051;-58
2023/04/04 10:26:11;;;;;;;10.60;8.27;;;;;;;11.17;34.32;102782.78;5114745;27;20111;-58
2023/04/04 10:28:36;;;;;;;8.32;7.47;;;;;;;11.50;32.72;102792.28;5114904;27;20489;-58
2023/04/04 10:31:14;;;;;;;12.35;7.55;;;;;;;11.33;32.91;102792.88;5132570;27;20042;-58
2023/04/04 10:34:02;;;;;;;9.55;8.65;;;;;;;11.68;34.47;102795.22;5121855;27;20096;-58
2023/04/04 10:36:35;;;;;;;8.80;7.57;;;;;;;11.99;32.47;102792.31;5112280;28;20063;-58
2023/04/04 10:39:12;;;;;;;10.02;8.10;;;;;;;12.07;34.20;102792.03;5094195;28;20044;-58
2023/04/04 10:41:39;;;;;;;8.38;7.57;;;;;;;12.18;33.48;102787.16;5077212;28;20036;-58
2023/04/04 10:44:15;;;;;;;8.38;7.57;;;;;;;12.26;33.35;102785.94;5095151;28;20446;-58
2023/04/04 10:46:42;;;;;;;8.45;7.63;;;;;;;12.05;30.81;102784.06;5076922;28;20072;-58
2023/04/04 10:49:09;;;;;;;9.40;7.38;;;;;;;12.50;30.79;102773.41;5093870;28;20038;-58
2023/04/04 10:51:35;;;;;;;7.53;6.82;;;;;;;12.71;31.35;102771.66;5111739;28;20023;-59
2023/04/04 10:54:01;;;;;;;8.98;7.57;;;;;;;12.53;30.88;102779.53;5109763;28;20023;-58
2023/04/04 10:56:30;;;;;;;7.97;7.00;;;;;;;12.55;30.55;102775.00;5132461;27;20382;-59
2023/04/04 10:59:18;;;;;;;9.73;7.35;;;;;;;12.64;31.88;102769.28;5132191;27;20324;-58
2023/04/04 11:01:57;;;;;;;7.68;6.97;;;;;;;12.80;30.83;102769.56;5131851;28;20041;-58
2023/04/04 11:04:32;;;;;;;;;;;;;;;13.31;31.21;102768.28;5131390;28;20035;-58
2023/04/04 11:07:16;;;;;;;7.88;7.07;;;;;;;13.29;31.21;102767.47;5132729;28;19998;-58
2023/04/04 11:09:49;;;;;;;9.20;7.07;;;;;;;12.96;32.93;102765.28;5131548;28;20049;-58
2023/04/04 11:12:19;;;;;;;7.60;6.90;;;;;;;13.38;31.93;102759.03;5093905;28;20069;-58
2023/04/04 11:15:13;;;;;;;10.23;6.93;;;;;;;13.97;32.10;102752.81;5113203;28;20077;-58
2023/04/04 11:18:00;;;;;;;8.25;6.57;;;;;;;14.24;29.59;102753.31;5071012;28;20047;-56
2023/04/04 11:20:39;;;;;;;7.28;6.57;;;;;;;14.22;30.50;102751.63;5111877;28;20024;-56
2023/04/04 11:23:07;;;;;;;8.32;6.47;;;;;;;14.47;28.30;102743.28;5112103;28;20019;-56
2023/04/04 11:25:36;;;;;;;8.48;6.03;;;;;;;14.60;27.88;102739.09;5128557;28;20031;-56